sensor_id;sensor_type;location;lat;lon;timestamp;pressure;altitude;pressure_sealevel;temperature;humidity
74045;BME280;62389;51.412;5.436;2022-11-20T00:02:18;101224.13;;;-0.08;78.22
74045;BME280;62389;51.412;5.436;2022-11-20T00:04:43;101216.41;;;-0.13;77.94
74045;BME280;62389;51.412;5.436;2022-11-20T00:07:09;101222.38;;;-0.17;78.62
74045;BME280;62389;51.412;5.436;2022-11-20T00:09:34;101225.75;;;-0.21;78.08
74045;BME280;62389;51.412;5.436;2022-11-20T00:12:00;101211.19;;;-0.25;79.14
74045;BME280;62389;51.412;5.436;2022-11-20T00:14:25;101218.00;;;-0.27;78.81
74045;BME280;62389;51.412;5.436;2022-11-20T00:16:51;101218.88;;;-0.30;79.53
74045;BME280;62389;51.412;5.436;2022-11-20T00:19:16;101222.25;;;-0.32;78.68
74045;BME280;62389;51.412;5.436;2022-11-20T00:21:41;101222.25;;;-0.34;79.82
74045;BME280;62389;51.412;5.436;2022-11-20T00:24:08;101211.09;;;-0.36;78.55
74045;BME280;62389;51.412;5.436;2022-11-20T00:26:35;101208.53;;;-0.37;78.52
74045;BME280;62389;51.412;5.436;2022-11-20T00:29:01;101210.25;;;-0.36;77.96
74045;BME280;62389;51.412;5.436;2022-11-20T00:31:27;101207.66;;;-0.39;78.91
74045;BME280;62389;51.412;5.436;2022-11-20T00:33:53;101202.50;;;-0.42;79.77
74045;BME280;62389;51.412;5.436;2022-11-20T00:36:21;101211.91;;;-0.44;79.03
74045;BME280;62389;51.412;5.436;2022-11-20T00:38:50;101219.59;;;-0.47;79.33
74045;BME280;62389;51.412;5.436;2022-11-20T00:41:16;101215.31;;;-0.50;79.41
74045;BME280;62389;51.412;5.436;2022-11-20T00:43:41;101211.84;;;-0.52;79.08
74045;BME280;62389;51.412;5.436;2022-11-20T00:46:18;101204.13;;;-0.54;78.95
74045;BME280;62389;51.412;5.436;2022-11-20T00:48:44;101206.69;;;-0.54;79.50
74045;BME280;62389;51.412;5.436;2022-11-20T00:51:12;101212.69;;;-0.55;79.64
74045;BME280;62389;51.412;5.436;2022-11-20T00:53:38;101208.38;;;-0.57;79.10
74045;BME280;62389;51.412;5.436;2022-11-20T00:56:10;101210.94;;;-0.59;80.14
74045;BME280;62389;51.412;5.436;2022-11-20T00:58:37;101207.47;;;-0.61;80.44
74045;BME280;62389;51.412;5.436;2022-11-20T01:01:08;101207.47;;;-0.64;80.23
74045;BME280;62389;51.412;5.436;2022-11-20T01:03:36;101198.06;;;-0.65;80.97
74045;BME280;62389;51.412;5.436;2022-11-20T01:06:11;101206.59;;;-0.67;80.29
74045;BME280;62389;51.412;5.436;2022-11-20T01:08:37;101209.13;;;-0.70;80.73
74045;BME280;62389;51.412;5.436;2022-11-20T01:11:05;101212.53;;;-0.73;80.23
74045;BME280;62389;51.412;5.436;2022-11-20T01:13:32;101210.81;;;-0.74;80.59
74045;BME280;62389;51.412;5.436;2022-11-20T01:16:20;101207.44;;;-0.70;81.15
74045;BME280;62389;51.412;5.436;2022-11-20T01:18:48;101210.91;;;-0.65;80.95
74045;BME280;62389;51.412;5.436;2022-11-20T01:21:14;101215.22;;;-0.58;80.07
74045;BME280;62389;51.412;5.436;2022-11-20T01:23:41;101210.13;;;-0.53;81.58
74045;BME280;62389;51.412;5.436;2022-11-20T01:26:10;101211.03;;;-0.46;81.76
74045;BME280;62389;51.412;5.436;2022-11-20T01:28:36;101204.19;;;-0.43;81.08
74045;BME280;62389;51.412;5.436;2022-11-20T01:31:11;101209.38;;;-0.38;81.01
74045;BME280;62389;51.412;5.436;2022-11-20T01:33:37;101201.69;;;-0.34;80.92
74045;BME280;62389;51.412;5.436;2022-11-20T01:36:04;101207.72;;;-0.30;81.49
74045;BME280;62389;51.412;5.436;2022-11-20T01:38:30;101202.59;;;-0.27;81.33
74045;BME280;62389;51.412;5.436;2022-11-20T01:40:56;101200.03;;;-0.29;80.47
74045;BME280;62389;51.412;5.436;2022-11-20T01:43:22;101192.31;;;-0.29;81.70
74045;BME280;62389;51.412;5.436;2022-11-20T01:46:01;101199.13;;;-0.31;81.24
74045;BME280;62389;51.412;5.436;2022-11-20T01:48:35;101200.84;;;-0.34;81.18
74045;BME280;62389;51.412;5.436;2022-11-20T01:51:03;101202.56;;;-0.33;81.11
74045;BME280;62389;51.412;5.436;2022-11-20T01:53:32;101216.22;;;-0.37;79.40
74045;BME280;62389;51.412;5.436;2022-11-20T01:56:01;101206.78;;;-0.44;81.37
74045;BME280;62389;51.412;5.436;2022-11-20T01:58:31;101209.34;;;-0.43;82.25
74045;BME280;62389;51.412;5.436;2022-11-20T02:00:57;101212.81;;;-0.39;82.52
74045;BME280;62389;51.412;5.436;2022-11-20T02:03:23;101202.53;;;-0.36;82.38
74045;BME280;62389;51.412;5.436;2022-11-20T02:08:14;101200.91;;;-0.25;81.90
74045;BME280;62389;51.412;5.436;2022-11-20T02:10:40;101196.63;;;-0.24;81.90
74045;BME280;62389;51.412;5.436;2022-11-20T02:13:05;101198.34;;;-0.20;82.29
74045;BME280;62389;51.412;5.436;2022-11-20T02:15:54;101192.38;;;-0.18;81.52
74045;BME280;62389;51.412;5.436;2022-11-20T02:18:20;101195.78;;;-0.25;80.74
74045;BME280;62389;51.412;5.436;2022-11-20T02:20:49;101196.56;;;-0.32;80.31
74045;BME280;62389;51.412;5.436;2022-11-20T02:25:41;101196.53;;;-0.40;80.44
74045;BME280;62389;51.412;5.436;2022-11-20T02:28:09;101195.63;;;-0.40;81.64
74045;BME280;62389;51.412;5.436;2022-11-20T02:30:34;101199.09;;;-0.35;80.91
74045;BME280;62389;51.412;5.436;2022-11-20T02:33:00;101189.69;;;-0.36;81.11
74045;BME280;62389;51.412;5.436;2022-11-20T02:37:53;101176.81;;;-0.39;81.48
74045;BME280;62389;51.412;5.436;2022-11-20T02:40:19;101183.66;;;-0.41;80.52
74045;BME280;62389;51.412;5.436;2022-11-20T02:42:45;101186.22;;;-0.44;81.66
74045;BME280;62389;51.412;5.436;2022-11-20T02:45:10;101183.69;;;-0.40;81.78
74045;BME280;62389;51.412;5.436;2022-11-20T02:47:36;101188.03;;;-0.30;82.15
74045;BME280;62389;51.412;5.436;2022-11-20T02:50:02;101185.50;;;-0.22;81.57
74045;BME280;62389;51.412;5.436;2022-11-20T02:52:27;101183.81;;;-0.17;82.16
74045;BME280;62389;51.412;5.436;2022-11-20T02:54:53;101189.84;;;-0.12;81.11
74045;BME280;62389;51.412;5.436;2022-11-20T02:57:18;101179.56;;;-0.07;80.69
74045;BME280;62389;51.412;5.436;2022-11-20T02:59:43;101183.88;;;-0.05;80.77
74045;BME280;62389;51.412;5.436;2022-11-20T03:02:09;101181.28;;;-0.08;79.34
74045;BME280;62389;51.412;5.436;2022-11-20T03:04:34;101187.25;;;-0.13;79.59
74045;BME280;62389;51.412;5.436;2022-11-20T03:07:00;101180.38;;;-0.17;81.34
74045;BME280;62389;51.412;5.436;2022-11-20T03:09:25;101174.38;;;-0.16;81.74
74045;BME280;62389;51.412;5.436;2022-11-20T03:11:50;101186.44;;;-0.09;80.85
74045;BME280;62389;51.412;5.436;2022-11-20T03:14:16;101183.88;;;-0.05;81.73
74045;BME280;62389;51.412;5.436;2022-11-20T03:16:41;101181.34;;;0.00;81.55
74045;BME280;62389;51.412;5.436;2022-11-20T03:19:07;101172.75;;;0.03;80.53
74045;BME280;62389;51.412;5.436;2022-11-20T03:21:33;101168.47;;;0.05;79.66
74045;BME280;62389;51.412;5.436;2022-11-20T03:23:58;101170.19;;;0.03;80.51
74045;BME280;62389;51.412;5.436;2022-11-20T03:26:25;101171.06;;;0.00;80.18
74045;BME280;62389;51.412;5.436;2022-11-20T03:28:52;101162.47;;;-0.02;80.86
74045;BME280;62389;51.412;5.436;2022-11-20T03:31:20;101153.91;;;0.02;80.63
74045;BME280;62389;51.412;5.436;2022-11-20T03:33:46;101162.50;;;0.06;80.55
74045;BME280;62389;51.412;5.436;2022-11-20T03:36:13;101153.06;;;0.08;80.77
74045;BME280;62389;51.412;5.436;2022-11-20T03:38:40;101149.63;;;0.09;80.67
74045;BME280;62389;51.412;5.436;2022-11-20T03:41:08;101152.25;;;0.10;80.72
74045;BME280;62389;51.412;5.436;2022-11-20T03:43:33;101144.53;;;0.12;81.23
74045;BME280;62389;51.412;5.436;2022-11-20T03:45:59;101152.25;;;0.10;79.53
74045;BME280;62389;51.412;5.436;2022-11-20T03:48:25;101142.75;;;0.05;80.37
74045;BME280;62389;51.412;5.436;2022-11-20T03:50:52;101136.78;;;0.06;80.16
74045;BME280;62389;51.412;5.436;2022-11-20T03:53:17;101139.34;;;0.09;81.50
74045;BME280;62389;51.412;5.436;2022-11-20T03:55:43;101146.22;;;0.08;80.77
74045;BME280;62389;51.412;5.436;2022-11-20T03:58:08;101141.06;;;0.08;80.80
74045;BME280;62389;51.412;5.436;2022-11-20T04:00:34;101132.53;;;0.11;80.01
74045;BME280;62389;51.412;5.436;2022-11-20T04:03:00;101133.38;;;0.13;80.78
74045;BME280;62389;51.412;5.436;2022-11-20T04:05:26;101127.38;;;0.14;80.28
74045;BME280;62389;51.412;5.436;2022-11-20T04:07:51;101123.94;;;0.13;79.71
74045;BME280;62389;51.412;5.436;2022-11-20T04:10:17;101129.94;;;0.14;80.30
74045;BME280;62389;51.412;5.436;2022-11-20T04:12:42;101129.09;;;0.13;80.01
74045;BME280;62389;51.412;5.436;2022-11-20T04:15:08;101129.94;;;0.14;80.28
74045;BME280;62389;51.412;5.436;2022-11-20T04:17:33;101135.09;;;0.14;80.13
74045;BME280;62389;51.412;5.436;2022-11-20T04:19:59;101131.66;;;0.15;80.94
74045;BME280;62389;51.412;5.436;2022-11-20T04:22:24;101130.78;;;0.14;80.26
74045;BME280;62389;51.412;5.436;2022-11-20T04:24:50;101141.13;;;0.16;80.46
74045;BME280;62389;51.412;5.436;2022-11-20T04:27:15;101138.53;;;0.17;81.61
74045;BME280;62389;51.412;5.436;2022-11-20T04:29:41;101125.69;;;0.17;81.51
74045;BME280;62389;51.412;5.436;2022-11-20T04:32:06;101133.41;;;0.20;80.88
74045;BME280;62389;51.412;5.436;2022-11-20T04:34:31;101132.53;;;0.20;80.28
74045;BME280;62389;51.412;5.436;2022-11-20T04:36:57;101134.22;;;0.15;81.27
74045;BME280;62389;51.412;5.436;2022-11-20T04:39:22;101135.09;;;0.14;80.93
74045;BME280;62389;51.412;5.436;2022-11-20T04:41:47;101130.78;;;0.10;80.52
74045;BME280;62389;51.412;5.436;2022-11-20T04:44:13;101133.34;;;0.08;80.15
74045;BME280;62389;51.412;5.436;2022-11-20T04:46:40;101129.91;;;0.03;79.38
74045;BME280;62389;51.412;5.436;2022-11-20T04:49:06;101122.19;;;0.02;81.07
74045;BME280;62389;51.412;5.436;2022-11-20T04:51:32;101117.06;;;0.02;81.08
74045;BME280;62389;51.412;5.436;2022-11-20T04:53:58;101121.31;;;0.04;81.62
74045;BME280;62389;51.412;5.436;2022-11-20T04:56:23;101123.06;;;0.07;81.27
74045;BME280;62389;51.412;5.436;2022-11-20T04:58:49;101124.81;;;0.11;81.07
74045;BME280;62389;51.412;5.436;2022-11-20T05:01:24;101118.81;;;0.12;81.75
74045;BME280;62389;51.412;5.436;2022-11-20T05:03:50;101117.91;;;0.10;81.11
74045;BME280;62389;51.412;5.436;2022-11-20T05:06:18;101112.78;;;0.07;81.24
74045;BME280;62389;51.412;5.436;2022-11-20T05:08:43;101105.06;;;0.07;82.50
74045;BME280;62389;51.412;5.436;2022-11-20T05:11:14;101106.81;;;0.11;82.97
74045;BME280;62389;51.412;5.436;2022-11-20T05:13:40;101107.66;;;0.11;81.58
74045;BME280;62389;51.412;5.436;2022-11-20T05:16:11;101103.34;;;0.09;81.52
74045;BME280;62389;51.412;5.436;2022-11-20T05:18:37;101097.34;;;0.02;81.22
74045;BME280;62389;51.412;5.436;2022-11-20T05:21:03;101100.75;;;-0.04;82.04
74045;BME280;62389;51.412;5.436;2022-11-20T05:23:29;101093.88;;;-0.05;81.42
74045;BME280;62389;51.412;5.436;2022-11-20T05:25:56;101091.31;;;-0.05;81.99
74045;BME280;62389;51.412;5.436;2022-11-20T05:28:22;101097.31;;;-0.04;81.84
74045;BME280;62389;51.412;5.436;2022-11-20T05:30:48;101091.31;;;-0.03;82.25
74045;BME280;62389;51.412;5.436;2022-11-20T05:33:13;101093.91;;;0.00;82.83
74045;BME280;62389;51.412;5.436;2022-11-20T05:35:39;101093.03;;;0.03;82.90
74045;BME280;62389;51.412;5.436;2022-11-20T05:38:05;101092.22;;;0.07;82.74
74045;BME280;62389;51.412;5.436;2022-11-20T05:40:30;101093.94;;;0.11;82.27
74045;BME280;62389;51.412;5.436;2022-11-20T05:42:55;101087.06;;;0.10;82.00
74045;BME280;62389;51.412;5.436;2022-11-20T05:45:21;101096.50;;;0.08;82.16
74045;BME280;62389;51.412;5.436;2022-11-20T05:47:46;101093.06;;;0.09;82.97
74045;BME280;62389;51.412;5.436;2022-11-20T05:50:12;101104.22;;;0.12;82.54
74045;BME280;62389;51.412;5.436;2022-11-20T05:52:37;101106.81;;;0.17;83.54
74045;BME280;62389;51.412;5.436;2022-11-20T05:55:02;101109.38;;;0.20;83.02
74045;BME280;62389;51.412;5.436;2022-11-20T05:57:28;101112.84;;;0.22;83.55
74045;BME280;62389;51.412;5.436;2022-11-20T05:59:53;101119.69;;;0.23;83.30
74045;BME280;62389;51.412;5.436;2022-11-20T06:02:19;101115.41;;;0.22;82.64
74045;BME280;62389;51.412;5.436;2022-11-20T06:04:44;101124.84;;;0.21;82.61
74045;BME280;62389;51.412;5.436;2022-11-20T06:07:09;101129.97;;;0.18;82.62
74045;BME280;62389;51.412;5.436;2022-11-20T06:09:35;101125.69;;;0.16;82.90
74045;BME280;62389;51.412;5.436;2022-11-20T06:12:00;101128.22;;;0.14;81.73
74045;BME280;62389;51.412;5.436;2022-11-20T06:14:26;101125.66;;;0.13;82.80
74045;BME280;62389;51.412;5.436;2022-11-20T06:16:51;101119.66;;;0.14;84.08
74045;BME280;62389;51.412;5.436;2022-11-20T06:19:16;101115.38;;;0.19;83.38
74045;BME280;62389;51.412;5.436;2022-11-20T06:21:42;101120.53;;;0.22;83.37
74045;BME280;62389;51.412;5.436;2022-11-20T06:24:09;101118.84;;;0.22;82.64
74045;BME280;62389;51.412;5.436;2022-11-20T06:26:35;101117.13;;;0.23;82.69
74045;BME280;62389;51.412;5.436;2022-11-20T06:29:00;101114.53;;;0.24;82.95
74045;BME280;62389;51.412;5.436;2022-11-20T06:31:26;101122.28;;;0.26;82.73
74045;BME280;62389;51.412;5.436;2022-11-20T06:33:52;101122.28;;;0.29;82.71
74045;BME280;62389;51.412;5.436;2022-11-20T06:36:19;101115.44;;;0.34;83.55
74045;BME280;62389;51.412;5.436;2022-11-20T06:38:45;101113.72;;;0.36;83.29
74045;BME280;62389;51.412;5.436;2022-11-20T06:41:15;101106.88;;;0.35;82.88
74045;BME280;62389;51.412;5.436;2022-11-20T06:43:41;101106.88;;;0.35;82.68
74045;BME280;62389;51.412;5.436;2022-11-20T06:46:08;101098.28;;;0.35;82.49
74045;BME280;62389;51.412;5.436;2022-11-20T06:48:33;101098.28;;;0.36;83.92
74045;BME280;62389;51.412;5.436;2022-11-20T06:50:59;101100.84;;;0.39;83.34
74045;BME280;62389;51.412;5.436;2022-11-20T06:53:24;101100.88;;;0.41;82.76
74045;BME280;62389;51.412;5.436;2022-11-20T06:55:51;101089.72;;;0.39;83.24
74045;BME280;62389;51.412;5.436;2022-11-20T06:58:17;101094.00;;;0.35;83.31
74045;BME280;62389;51.412;5.436;2022-11-20T07:00:43;101100.84;;;0.33;82.79
74045;BME280;62389;51.412;5.436;2022-11-20T07:03:10;101097.41;;;0.33;82.89
74045;BME280;62389;51.412;5.436;2022-11-20T07:05:36;101101.72;;;0.32;82.60
74045;BME280;62389;51.412;5.436;2022-11-20T07:08:03;101101.72;;;0.32;82.87
74045;BME280;62389;51.412;5.436;2022-11-20T07:10:29;101096.56;;;0.31;83.50
74045;BME280;62389;51.412;5.436;2022-11-20T07:12:55;101087.97;;;0.33;84.35
74045;BME280;62389;51.412;5.436;2022-11-20T07:15:22;101088.84;;;0.34;83.74
74045;BME280;62389;51.412;5.436;2022-11-20T07:17:48;101083.69;;;0.34;83.85
74045;BME280;62389;51.412;5.436;2022-11-20T07:20:14;101088.84;;;0.37;84.15
74045;BME280;62389;51.412;5.436;2022-11-20T07:22:40;101089.72;;;0.40;84.50
74045;BME280;62389;51.412;5.436;2022-11-20T07:25:06;101088.88;;;0.41;83.61
74045;BME280;62389;51.412;5.436;2022-11-20T07:27:31;101089.72;;;0.40;84.25
74045;BME280;62389;51.412;5.436;2022-11-20T07:29:57;101094.88;;;0.43;84.44
74045;BME280;62389;51.412;5.436;2022-11-20T07:32:22;101088.03;;;0.45;85.76
74045;BME280;62389;51.412;5.436;2022-11-20T07:34:48;101085.44;;;0.47;84.21
74045;BME280;62389;51.412;5.436;2022-11-20T07:37:14;101084.59;;;0.46;84.30
74045;BME280;62389;51.412;5.436;2022-11-20T07:39:39;101089.72;;;0.46;83.91
74045;BME280;62389;51.412;5.436;2022-11-20T07:42:08;101089.72;;;0.46;83.91
74045;BME280;62389;51.412;5.436;2022-11-20T07:44:34;101085.44;;;0.45;83.53
74045;BME280;62389;51.412;5.436;2022-11-20T07:46:59;101084.56;;;0.43;83.44
74045;BME280;62389;51.412;5.436;2022-11-20T07:49:25;101086.28;;;0.44;83.73
74045;BME280;62389;51.412;5.436;2022-11-20T07:51:51;101090.59;;;0.48;84.43
74045;BME280;62389;51.412;5.436;2022-11-20T07:54:18;101091.44;;;0.54;83.23
74045;BME280;62389;51.412;5.436;2022-11-20T07:56:44;101096.63;;;0.57;83.09
74045;BME280;62389;51.412;5.436;2022-11-20T07:59:09;101096.63;;;0.57;83.28
74045;BME280;62389;51.412;5.436;2022-11-20T08:01:37;101105.19;;;0.56;83.21
74045;BME280;62389;51.412;5.436;2022-11-20T08:04:02;101094.03;;;0.57;82.87
74045;BME280;62389;51.412;5.436;2022-11-20T08:06:28;101092.31;;;0.57;83.15
74045;BME280;62389;51.412;5.436;2022-11-20T08:08:53;101098.34;;;0.61;83.12
74045;BME280;62389;51.412;5.436;2022-11-20T08:11:18;101093.19;;;0.61;83.56
74045;BME280;62389;51.412;5.436;2022-11-20T08:14:03;101098.31;;;0.64;83.09
74045;BME280;62389;51.412;5.436;2022-11-20T08:16:41;101093.19;;;0.68;83.78
74045;BME280;62389;51.412;5.436;2022-11-20T08:19:07;101091.47;;;0.72;82.68
74045;BME280;62389;51.412;5.436;2022-11-20T08:21:33;101094.06;;;0.72;83.37
74045;BME280;62389;51.412;5.436;2022-11-20T08:23:58;101084.59;;;0.74;83.99
74045;BME280;62389;51.412;5.436;2022-11-20T08:26:24;101090.63;;;0.77;82.95
74045;BME280;62389;51.412;5.436;2022-11-20T08:28:54;101098.34;;;0.76;82.65
74045;BME280;62389;51.412;5.436;2022-11-20T08:31:20;101097.50;;;0.77;82.83
74045;BME280;62389;51.412;5.436;2022-11-20T08:33:46;101094.91;;;0.80;83.31
74045;BME280;62389;51.412;5.436;2022-11-20T08:36:12;101101.78;;;0.84;83.43
74045;BME280;62389;51.412;5.436;2022-11-20T08:38:37;101101.78;;;0.87;83.70
74045;BME280;62389;51.412;5.436;2022-11-20T08:41:04;101094.03;;;0.90;83.07
74045;BME280;62389;51.412;5.436;2022-11-20T08:43:49;101091.50;;;0.96;83.97
74045;BME280;62389;51.412;5.436;2022-11-20T08:46:16;101093.19;;;0.97;83.78
74045;BME280;62389;51.412;5.436;2022-11-20T08:48:42;101086.31;;;1.02;83.69
74045;BME280;62389;51.412;5.436;2022-11-20T08:51:07;101088.03;;;1.10;83.82
74045;BME280;62389;51.412;5.436;2022-11-20T08:53:33;101094.88;;;1.15;83.30
74045;BME280;62389;51.412;5.436;2022-11-20T08:55:58;101085.44;;;1.19;83.86
74045;BME280;62389;51.412;5.436;2022-11-20T08:58:25;101088.03;;;1.22;83.88
74045;BME280;62389;51.412;5.436;2022-11-20T09:00:50;101090.59;;;1.26;84.60
74045;BME280;62389;51.412;5.436;2022-11-20T09:03:16;101090.59;;;1.31;84.47
74045;BME280;62389;51.412;5.436;2022-11-20T09:05:41;101084.56;;;1.35;84.44
74045;BME280;62389;51.412;5.436;2022-11-20T09:08:08;101088.84;;;1.39;84.14
74045;BME280;62389;51.412;5.436;2022-11-20T09:10:33;101078.53;;;1.39;84.58
74045;BME280;62389;51.412;5.436;2022-11-20T09:12:59;101075.97;;;1.41;84.62
74045;BME280;62389;51.412;5.436;2022-11-20T09:15:25;101067.38;;;1.43;85.03
74045;BME280;62389;51.412;5.436;2022-11-20T09:20:17;101069.09;;;1.41;85.73
74045;BME280;62389;51.412;5.436;2022-11-20T09:22:42;101064.78;;;1.45;85.92
74045;BME280;62389;51.412;5.436;2022-11-20T09:25:08;101063.91;;;1.50;86.36
74045;BME280;62389;51.412;5.436;2022-11-20T09:27:33;101053.59;;;1.53;86.09
74045;BME280;62389;51.412;5.436;2022-11-20T09:30:00;101047.56;;;1.59;86.07
74045;BME280;62389;51.412;5.436;2022-11-20T09:32:26;101042.38;;;1.61;85.73
74045;BME280;62389;51.412;5.436;2022-11-20T09:34:51;101045.84;;;1.61;85.84
74045;BME280;62389;51.412;5.436;2022-11-20T09:37:16;101044.09;;;1.63;85.77
74045;BME280;62389;51.412;5.436;2022-11-20T09:39:42;101033.78;;;1.68;85.82
74045;BME280;62389;51.412;5.436;2022-11-20T09:44:58;101019.97;;;1.75;85.51
74045;BME280;62389;51.412;5.436;2022-11-20T09:47:48;101019.09;;;1.79;85.69
74045;BME280;62389;51.412;5.436;2022-11-20T09:50:31;101022.53;;;1.84;86.08
74045;BME280;62389;51.412;5.436;2022-11-20T09:53:08;101021.63;;;1.90;85.79
74045;BME280;62389;51.412;5.436;2022-11-20T09:55:36;101020.78;;;1.89;85.15
74045;BME280;62389;51.412;5.436;2022-11-20T09:58:06;101013.88;;;1.90;85.34
74045;BME280;62389;51.412;5.436;2022-11-20T10:00:32;101019.91;;;1.90;86.17
74045;BME280;62389;51.412;5.436;2022-11-20T10:05:27;100995.81;;;1.96;85.89
74045;BME280;62389;51.412;5.436;2022-11-20T10:08:13;100986.31;;;1.99;85.57
74045;BME280;62389;51.412;5.436;2022-11-20T10:10:44;100972.53;;;2.06;86.25
74045;BME280;62389;51.412;5.436;2022-11-20T10:19:04;100955.91;;;2.40;85.48
74045;BME280;62389;51.412;5.436;2022-11-20T10:29:15;100947.00;;;2.77;85.54
74045;BME280;62389;51.412;5.436;2022-11-20T10:31:43;100945.22;;;2.81;85.65
74045;BME280;62389;51.412;5.436;2022-11-20T10:36:44;100941.72;;;2.88;85.09
74045;BME280;62389;51.412;5.436;2022-11-20T10:41:54;100932.22;;;2.89;85.02
74045;BME280;62389;51.412;5.436;2022-11-20T10:44:22;100933.97;;;2.85;84.96
74045;BME280;62389;51.412;5.436;2022-11-20T10:47:17;100921.09;;;2.83;85.02
74045;BME280;62389;51.412;5.436;2022-11-20T10:49:50;100910.75;;;2.83;85.00
74045;BME280;62389;51.412;5.436;2022-11-20T10:55:28;100896.97;;;2.83;85.69
74045;BME280;62389;51.412;5.436;2022-11-20T11:00:32;100886.56;;;2.89;85.88
74045;BME280;62389;51.412;5.436;2022-11-20T11:02:57;100893.44;;;2.90;85.92
74045;BME280;62389;51.412;5.436;2022-11-20T11:05:45;100883.97;;;2.91;86.02
74045;BME280;62389;51.412;5.436;2022-11-20T11:08:15;100883.97;;;2.92;85.47
74045;BME280;62389;51.412;5.436;2022-11-20T11:10:48;100888.28;;;2.92;85.56
74045;BME280;62389;51.412;5.436;2022-11-20T11:13:28;100881.44;;;2.88;85.65
74045;BME280;62389;51.412;5.436;2022-11-20T11:15:54;100872.88;;;2.82;86.06
74045;BME280;62389;51.412;5.436;2022-11-20T11:18:32;100875.44;;;2.84;85.65
74045;BME280;62389;51.412;5.436;2022-11-20T11:21:00;100871.16;;;2.83;86.23
74045;BME280;62389;51.412;5.436;2022-11-20T11:23:40;100873.72;;;2.84;86.10
74045;BME280;62389;51.412;5.436;2022-11-20T11:26:26;100870.28;;;2.84;85.99
74045;BME280;62389;51.412;5.436;2022-11-20T11:29:00;100872.84;;;2.84;86.87
74045;BME280;62389;51.412;5.436;2022-11-20T11:31:28;100859.09;;;2.83;86.89
74045;BME280;62389;51.412;5.436;2022-11-20T11:36:33;100843.59;;;2.83;87.83
74045;BME280;62389;51.412;5.436;2022-11-20T11:39:00;100854.75;;;2.87;86.73
74045;BME280;62389;51.412;5.436;2022-11-20T11:41:30;100853.00;;;2.89;86.92
74045;BME280;62389;51.412;5.436;2022-11-20T11:44:04;100844.38;;;2.92;87.54
74045;BME280;62389;51.412;5.436;2022-11-20T11:46:58;100839.16;;;2.96;87.75
74045;BME280;62389;51.412;5.436;2022-11-20T11:49:24;100840.81;;;2.99;87.65
74045;BME280;62389;51.412;5.436;2022-11-20T11:54:45;100819.19;;;3.06;87.27
74045;BME280;62389;51.412;5.436;2022-11-20T11:57:26;100814.91;;;3.06;87.60
74045;BME280;62389;51.412;5.436;2022-11-20T12:00:09;100813.13;;;3.08;88.00
74045;BME280;62389;51.412;5.436;2022-11-20T12:05:50;100798.34;;;3.18;88.20
74045;BME280;62389;51.412;5.436;2022-11-20T12:13:21;100777.56;;;3.27;88.45
74045;BME280;62389;51.412;5.436;2022-11-20T12:15:51;100774.09;;;3.28;88.66
74045;BME280;62389;51.412;5.436;2022-11-20T12:18:21;100760.25;;;3.31;87.62
74045;BME280;62389;51.412;5.436;2022-11-20T12:26:50;100738.53;;;3.41;87.88
74045;BME280;62389;51.412;5.436;2022-11-20T12:29:35;100726.38;;;3.46;88.22
74045;BME280;62389;51.412;5.436;2022-11-20T12:37:38;100725.34;;;3.58;87.77
74045;BME280;62389;51.412;5.436;2022-11-20T12:40:30;100719.34;;;3.57;89.05
74045;BME280;62389;51.412;5.436;2022-11-20T12:43:04;100717.53;;;3.62;88.62
74045;BME280;62389;51.412;5.436;2022-11-20T12:46:23;100714.00;;;3.67;88.00
74045;BME280;62389;51.412;5.436;2022-11-20T12:51:50;100694.91;;;3.74;88.70
74045;BME280;62389;51.412;5.436;2022-11-20T13:00:51;100671.34;;;3.89;88.45
74045;BME280;62389;51.412;5.436;2022-11-20T13:03:33;100668.63;;;3.95;88.96
74045;BME280;62389;51.412;5.436;2022-11-20T13:08:34;100645.97;;;4.06;89.49
74045;BME280;62389;51.412;5.436;2022-11-20T13:16:58;100626.00;;;4.13;88.46
74045;BME280;62389;51.412;5.436;2022-11-20T13:19:25;100624.22;;;4.15;88.68
74045;BME280;62389;51.412;5.436;2022-11-20T13:21:52;100625.88;;;4.19;89.24
74045;BME280;62389;51.412;5.436;2022-11-20T13:24:22;100624.09;;;4.21;88.76
74045;BME280;62389;51.412;5.436;2022-11-20T13:27:16;100614.53;;;4.25;88.23
74045;BME280;62389;51.412;5.436;2022-11-20T13:29:58;100606.72;;;4.28;89.15
74045;BME280;62389;51.412;5.436;2022-11-20T13:32:25;100605.78;;;4.32;89.14
74045;BME280;62389;51.412;5.436;2022-11-20T13:35:01;100599.66;;;4.34;88.86
74045;BME280;62389;51.412;5.436;2022-11-20T13:45:27;100574.63;;;4.35;88.89
74045;BME280;62389;51.412;5.436;2022-11-20T13:47:54;100567.75;;;4.34;89.88
74045;BME280;62389;51.412;5.436;2022-11-20T13:50:24;100570.31;;;4.34;89.02
74045;BME280;62389;51.412;5.436;2022-11-20T13:53:01;100562.56;;;4.34;89.78
74045;BME280;62389;51.412;5.436;2022-11-20T14:01:15;100550.41;;;4.36;88.88
74045;BME280;62389;51.412;5.436;2022-11-20T14:03:42;100542.66;;;4.36;89.37
74045;BME280;62389;51.412;5.436;2022-11-20T14:08:47;100547.81;;;4.36;89.89
74045;BME280;62389;51.412;5.436;2022-11-20T14:11:28;100534.88;;;4.36;90.30
74045;BME280;62389;51.412;5.436;2022-11-20T14:14:13;100532.28;;;4.36;90.23
74045;BME280;62389;51.412;5.436;2022-11-20T14:16:40;100525.41;;;4.35;90.78
74045;BME280;62389;51.412;5.436;2022-11-20T14:24:13;100512.66;;;4.27;91.49
74045;BME280;62389;51.412;5.436;2022-11-20T14:26:43;100512.72;;;4.24;91.72
74045;BME280;62389;51.412;5.436;2022-11-20T14:29:29;100512.78;;;4.23;91.01
74045;BME280;62389;51.412;5.436;2022-11-20T14:31:58;100496.44;;;4.19;92.40
74045;BME280;62389;51.412;5.436;2022-11-20T14:34:28;100503.41;;;4.17;92.46
74045;BME280;62389;51.412;5.436;2022-11-20T14:36:57;100499.97;;;4.15;93.15
74045;BME280;62389;51.412;5.436;2022-11-20T14:39:31;100493.09;;;4.14;93.56
74045;BME280;62389;51.412;5.436;2022-11-20T14:41:58;100493.97;;;4.14;93.55
74045;BME280;62389;51.412;5.436;2022-11-20T14:44:29;100482.75;;;4.14;93.42
74045;BME280;62389;51.412;5.436;2022-11-20T14:46:56;100478.44;;;4.14;93.54
74045;BME280;62389;51.412;5.436;2022-11-20T14:49:23;100466.38;;;4.13;93.62